KBRY/BRY METAR and TAF weather

Enter ICAO airport designator
Station Type Date Time Source
KBRY METAR 2020/09/25 20:35 UTC NOAA

KBRY 252035Z AUTO 00000KT 10SM SCT050 23/16 A2995 RMK AO1


Station Type Date Time Source
KBRY Decoded METAR 2020/09/25 20:35 UTC NOAA

Station name not available
Sep 25, 2020 - 04:35 PM EDT / 2020.09.25 2035 UTC
Wind: Calm:0
Visibility: 10 mile(s):0
Sky conditions: partly cloudy
Temperature: 73 F (23 C)
Dew Point: 60 F (16 C)
Relative Humidity: 64%
Pressure (altimeter): 29.95 in. Hg (1014 hPa)
ob: KBRY 252035Z AUTO 00000KT 10SM SCT050 23/16 A2995 RMK AO1
cycle: 20

Station Type Date Time Source
KBRY TAF UTC NOAA

Error!

Example: see airport list